Погода Тисапан-эль-Альтона 2 недели

Халиско, Мексика

05 - 17 марта
  • 05марта
    Сегодня
    +11°
    +28°
    Облачно с прояснениями
    ВремяПогодаТемператураВлажностьДавлениеВетер, м/сВероятность осадков
    00:00Ясно и безоблачно+16°C47 %637 мм2.6 м/с2 %
    03:00Ясно и безоблачно+13°C53 %635 мм1.5 м/с2 %
    06:00Ясно и безоблачно+11°C57 %635 мм1.2 м/с2 %
    09:00Ясно и безоблачно+16°C37 %637 мм0.3 м/с2 %
    12:00Ясно и безоблачно+23°C30 %639 мм1.7 м/с2 %
    15:00Облачно с прояснениями+27°C15 %638 мм3.5 м/с2 %
    18:00Ясно и безоблачно+27°C17 %637 мм3.9 м/с2 %
    21:00Облачно с прояснениями+17°C51 %635 мм3.4 м/с2 %
  • 06марта
    Среда
    +10°
    +30°
    Небольшая облачность
    ВремяПогодаТемператураВлажностьДавлениеВетер, м/сВероятность осадков
    00:00Облачно с прояснениями+16°C49 %636 мм3.0 м/с2 %
    03:00Ясно и безоблачно+13°C62 %634 мм2.3 м/с2 %
    06:00Ясно и безоблачно+12°C62 %634 мм1.9 м/с2 %
    09:00Ясно и безоблачно+17°C31 %637 мм0.6 м/с2 %
    12:00Практически безоблачно+24°C26 %639 мм1.8 м/с2 %
    15:00Небольшая облачность+28°C18 %638 мм2.1 м/с2 %
    18:00Ясно и безоблачно+27°C30 %637 мм4.2 м/с2 %
    21:00Ясно и безоблачно+19°C51 %636 мм4.2 м/с2 %
  • 07марта
    Четверг
    +10°
    +30°
    Ясно и безоблачно
    ВремяПогодаТемператураВлажностьДавлениеВетер, м/сВероятность осадков
    00:00Ясно и безоблачно+16°C61 %636 мм2.6 м/с2 %
    03:00Ясно и безоблачно+13°C70 %634 мм2.4 м/с2 %
    06:00Ясно и безоблачно+11°C80 %634 мм1.7 м/с2 %
    09:00Ясно и безоблачно+17°C50 %638 мм0.5 м/с2 %
    12:00Ясно и безоблачно+23°C30 %639 мм2.7 м/с2 %
    15:00Ясно и безоблачно+29°C21 %638 мм4.9 м/с2 %
    18:00Ясно и безоблачно+27°C31 %637 мм5.3 м/с2 %
    21:00Небольшая облачность+18°C56 %637 мм4.3 м/с2 %
  • 08марта
    Пятница
    +10°
    +31°
    Небольшая облачность
    ВремяПогодаТемператураВлажностьДавлениеВетер, м/сВероятность осадков
    00:00Облачно с прояснениями+16°C64 %637 мм3.0 м/с2 %
    03:00Практически безоблачно+13°C73 %635 мм2.3 м/с2 %
    06:00Облачно с прояснениями+11°C77 %634 мм1.1 м/с2 %
    09:00Облачно с прояснениями+16°C53 %638 мм0.3 м/с2 %
    12:00Практически безоблачно+23°C34 %639 мм2.1 м/с2 %
    15:00Небольшая облачность+30°C20 %638 мм4.0 м/с2 %
    18:00Небольшая облачность+27°C29 %637 мм5.4 м/с2 %
    21:00Ясно и безоблачно+17°C61 %637 мм3.4 м/с2 %
Мы используем cookies
Соглашаюсь